createdAt,value
2023-04-02T00:01:47.772Z,97760.88
2023-04-02T00:05:34.551Z,97772.69
2023-04-02T00:08:41.015Z,97766.59
2023-04-02T00:11:45.474Z,97776.28
2023-04-02T00:14:51.463Z,97782.84
2023-04-02T00:17:54.167Z,97781.50
2023-04-02T00:21:04.082Z,97781.34
2023-04-02T00:24:14.968Z,97785.34
2023-04-02T00:27:18.295Z,97790.53
2023-04-02T00:30:21.047Z,97793.69
2023-04-02T00:33:25.301Z,97792.53
2023-04-02T00:36:34.127Z,97790.75
2023-04-02T00:43:16.437Z,97802.38
2023-04-02T00:46:24.188Z,97800.38
2023-04-02T00:49:32.748Z,97801.75
2023-04-02T00:52:37.109Z,97801.97
2023-04-02T00:55:41.646Z,97798.09
2023-04-02T00:58:44.876Z,97789.53
2023-04-02T01:01:54.245Z,97790.53
2023-04-02T01:04:58.758Z,97792.69
2023-04-02T01:08:09.246Z,97792.00
2023-04-02T01:11:23.329Z,97799.81
2023-04-02T01:14:36.983Z,97801.75
2023-04-02T01:17:49.597Z,97813.78
2023-04-02T01:21:10.453Z,97794.34
2023-04-02T01:24:15.104Z,97809.50
2023-04-02T01:27:19.942Z,97806.41
2023-04-02T01:30:29.579Z,97812.09
2023-04-02T01:33:35.492Z,97812.25
2023-04-02T01:36:43.451Z,97817.59
2023-04-02T01:40:05.548Z,97811.13
2023-04-02T01:43:16.497Z,97822.69
2023-04-02T01:49:58.848Z,97831.91
2023-04-02T01:53:03.412Z,97829.69
2023-04-02T01:56:07.413Z,97828.19
2023-04-02T01:59:11.579Z,97827.25
2023-04-02T02:02:15.886Z,97831.66
2023-04-02T02:05:20.364Z,97838.47
2023-04-02T02:08:32.287Z,97844.50
2023-04-02T02:11:36.444Z,97844.66
2023-04-02T02:14:39.108Z,97836.44
2023-04-02T02:17:43.252Z,97843.97
2023-04-02T02:20:45.828Z,97842.94
2023-04-02T02:23:48.364Z,97845.66
2023-04-02T02:30:31.559Z,97858.44
2023-04-02T02:33:38.103Z,97856.50
2023-04-02T02:36:46.485Z,97857.75
2023-04-02T02:39:52.611Z,97871.06
2023-04-02T02:42:58.142Z,97860.69
2023-04-02T02:46:01.533Z,97876.03
2023-04-02T02:49:06.146Z,97872.75
2023-04-02T02:52:16.132Z,97877.19
2023-04-02T02:55:20.902Z,97879.88
2023-04-02T02:58:27.433Z,97876.84
2023-04-02T03:01:30.394Z,97878.78
2023-04-02T03:04:35.648Z,97884.00
2023-04-02T03:07:38.857Z,97886.13
2023-04-02T03:10:45.273Z,97889.00
2023-04-02T03:13:50.358Z,97895.47
2023-04-02T03:16:56.394Z,97898.78
2023-04-02T03:20:06.337Z,97898.34
2023-04-02T03:23:15.696Z,97895.16
2023-04-02T03:26:20.864Z,97906.16
2023-04-02T03:29:27.027Z,97913.13
2023-04-02T03:32:32.074Z,97917.59
2023-04-02T03:35:39.360Z,97918.22
2023-04-02T03:38:44.488Z,97923.09
2023-04-02T03:41:49.618Z,97919.31
2023-04-02T03:44:55.233Z,97923.38
2023-04-02T03:48:01.980Z,97924.97
2023-04-02T03:51:08.310Z,97923.19
2023-04-02T03:54:14.486Z,97932.16
2023-04-02T03:57:26.741Z,97933.66
2023-04-02T04:00:34.256Z,97927.44
2023-04-02T04:03:40.926Z,97927.78
2023-04-02T04:06:46.593Z,97928.25
2023-04-02T04:09:52.118Z,97931.19
2023-04-02T04:12:57.707Z,97937.44
2023-04-02T04:16:03.505Z,97944.63
2023-04-02T04:19:08.149Z,97944.41
2023-04-02T04:22:17.903Z,97949.63
2023-04-02T04:25:23.786Z,97949.63
2023-04-02T04:28:30.482Z,97955.00
2023-04-02T04:31:38.943Z,97965.59
2023-04-02T04:34:46.866Z,97965.59
2023-04-02T04:37:58.643Z,97970.44
2023-04-02T04:41:05.286Z,97973.44
2023-04-02T04:44:14.178Z,97981.28
2023-04-02T04:47:18.965Z,97986.69
2023-04-02T04:50:29.132Z,97984.75
2023-04-02T04:53:33.254Z,97989.59
2023-04-02T04:56:35.877Z,97985.94
2023-04-02T04:59:43.956Z,97995.44
2023-04-02T05:02:48.652Z,97991.94
2023-04-02T05:05:51.908Z,98003.91
2023-04-02T05:08:56.931Z,98004.88
2023-04-02T05:12:05.641Z,98004.69
2023-04-02T05:15:13.943Z,98009.69
2023-04-02T05:18:24.900Z,98008.81
2023-04-02T05:21:34.225Z,98009.97
2023-04-02T05:24:43.697Z,98017.81
2023-04-02T05:27:49.631Z,98020.22
2023-04-02T05:30:53.684Z,98024.53
2023-04-02T05:33:56.968Z,98027.97
2023-04-02T05:36:59.709Z,98034.56
2023-04-02T05:40:12.821Z,98038.72
2023-04-02T05:43:18.854Z,98035.94
2023-04-02T05:46:25.577Z,98039.84
2023-04-02T05:49:31.322Z,98048.09
2023-04-02T05:52:37.359Z,98055.94
2023-04-02T05:55:46.121Z,98053.50
2023-04-02T05:58:51.381Z,98057.88
2023-04-02T06:01:58.847Z,98065.78
2023-04-02T06:05:07.121Z,98070.84
2023-04-02T06:08:12.489Z,98067.47
2023-04-02T06:11:20.020Z,98079.44
2023-04-02T06:14:22.616Z,98080.38
2023-04-02T06:17:25.569Z,98081.03
2023-04-02T06:20:28.604Z,98089.66
2023-04-02T06:23:34.058Z,98094.28
2023-04-02T06:26:40.049Z,98096.31
2023-04-02T06:29:45.601Z,98099.84
2023-04-02T06:32:49.890Z,98101.97
2023-04-02T06:35:53.397Z,98106.19
2023-04-02T06:38:58.746Z,98110.06
2023-04-02T06:42:06.224Z,98110.16
2023-04-02T06:45:15.625Z,98124.56
2023-04-02T06:48:20.816Z,98131.50
2023-04-02T06:51:24.130Z,98139.06
2023-04-02T06:54:26.986Z,98134.25
2023-04-02T06:57:32.766Z,98139.72
2023-04-02T07:00:38.098Z,98152.00
2023-04-02T07:03:41.031Z,98157.72
2023-04-02T07:06:43.650Z,98163.06
2023-04-02T07:09:46.275Z,98160.91
2023-04-02T07:12:50.257Z,98165.44
2023-04-02T07:15:55.136Z,98175.72
2023-04-02T07:18:58.955Z,98175.22
2023-04-02T07:22:01.518Z,98175.03
2023-04-02T07:25:04.214Z,98188.91
2023-04-02T07:28:08.164Z,98179.03
2023-04-02T07:31:16.687Z,98187.75
2023-04-02T07:34:19.250Z,98192.28
2023-04-02T07:37:21.754Z,98198.56
2023-04-02T07:40:24.418Z,98209.53
2023-04-02T07:43:28.300Z,98202.91
2023-04-02T07:46:31.108Z,98213.13
2023-04-02T07:49:33.633Z,98209.97
2023-04-02T07:52:40.635Z,98220.53
2023-04-02T07:55:43.283Z,98218.03
2023-04-02T07:58:47.437Z,98219.81
2023-04-02T08:01:50.264Z,98226.47
2023-04-02T08:04:52.937Z,98236.31
2023-04-02T08:07:56.027Z,98245.00
2023-04-02T08:10:58.611Z,98244.09
2023-04-02T08:14:02.747Z,98245.59
2023-04-02T08:17:05.464Z,98254.75
2023-04-02T08:20:11.930Z,98256.91
2023-04-02T08:23:17.086Z,98256.66
2023-04-02T08:26:19.972Z,98267.06
2023-04-02T08:29:23.882Z,98263.75
2023-04-02T08:32:29.834Z,98274.81
2023-04-02T08:35:32.362Z,98277.91
2023-04-02T08:38:34.923Z,98284.38
2023-04-02T08:41:39.699Z,98286.56
2023-04-02T08:44:48.169Z,98292.75
2023-04-02T08:47:52.130Z,98292.38
2023-04-02T08:50:55.139Z,98298.03
2023-04-02T08:54:01.407Z,98300.03
2023-04-02T08:57:07.708Z,98302.91
2023-04-02T09:00:27.584Z,98305.28
2023-04-02T09:03:32.265Z,98314.81
2023-04-02T09:06:35.744Z,98317.25
2023-04-02T09:09:39.272Z,98316.84
2023-04-02T09:12:43.222Z,98322.13
2023-04-02T09:15:47.576Z,98323.97
2023-04-02T09:18:52.462Z,98336.34
2023-04-02T09:22:07.538Z,98334.53
2023-04-02T09:25:15.245Z,98341.03
2023-04-02T09:28:18.022Z,98342.47
2023-04-02T09:31:24.260Z,98338.41
2023-04-02T09:34:31.407Z,98345.84
2023-04-02T09:37:34.700Z,98350.63
2023-04-02T09:40:43.434Z,98354.06
2023-04-02T09:43:46.309Z,98363.09
2023-04-02T09:46:56.171Z,98366.47
2023-04-02T09:50:14.975Z,98379.31
2023-04-02T09:53:30.576Z,98375.28
2023-04-02T09:56:34.120Z,98371.38
2023-04-02T09:59:37.427Z,98377.06
2023-04-02T10:02:41.861Z,98386.50
2023-04-02T10:05:44.699Z,98388.63
2023-04-02T10:08:48.539Z,98387.78
2023-04-02T10:11:51.850Z,98396.03
2023-04-02T10:14:55.962Z,98402.81
2023-04-02T10:18:07.480Z,98397.91
2023-04-02T10:21:13.331Z,98401.88
2023-04-02T10:24:17.298Z,98395.94
2023-04-02T10:27:28.494Z,98402.72
2023-04-02T10:30:34.979Z,98399.97
2023-04-02T10:33:40.340Z,98399.91
2023-04-02T10:36:49.295Z,98398.44
2023-04-02T10:39:54.265Z,98400.88
2023-04-02T10:43:37.294Z,98415.69
2023-04-02T10:46:46.418Z,98414.19
2023-04-02T10:49:55.669Z,98418.13
2023-04-02T10:53:01.849Z,98423.94
2023-04-02T10:56:08.778Z,98422.03
2023-04-02T10:59:17.822Z,98422.75
2023-04-02T11:02:37.447Z,98434.28
2023-04-02T11:05:44.218Z,98430.59
2023-04-02T11:08:49.560Z,98437.66
2023-04-02T11:11:54.087Z,98448.84
2023-04-02T11:14:57.352Z,98452.38
2023-04-02T11:18:00.171Z,98451.53
2023-04-02T11:21:06.561Z,98449.78
2023-04-02T11:24:25.080Z,98455.97
2023-04-02T11:27:29.137Z,98455.53
2023-04-02T11:30:31.785Z,98460.53
2023-04-02T11:33:44.801Z,98461.31
2023-04-02T11:37:07.735Z,98463.16
2023-04-02T11:40:42.156Z,98467.09
2023-04-02T11:43:52.739Z,98463.53
2023-04-02T11:47:16.022Z,98462.88
2023-04-02T11:50:30.943Z,98473.22
2023-04-02T11:53:35.737Z,98477.75
2023-04-02T11:56:41.884Z,98472.19
2023-04-02T11:59:51.695Z,98475.09
2023-04-02T12:03:06.873Z,98475.84
2023-04-02T12:06:16.124Z,98484.44
2023-04-02T12:09:23.447Z,98479.69
2023-04-02T12:12:28.029Z,98488.31
2023-04-02T12:15:35.212Z,98488.56
2023-04-02T12:18:43.104Z,98494.13
2023-04-02T12:21:47.386Z,98493.81
2023-04-02T12:24:51.627Z,98497.28
2023-04-02T12:28:09.330Z,98492.81
2023-04-02T12:31:14.964Z,98494.28
2023-04-02T12:34:19.214Z,98501.94
2023-04-02T12:37:24.713Z,98499.13
2023-04-02T12:40:29.183Z,98504.97
2023-04-02T12:43:33.363Z,98506.84
2023-04-02T12:46:36.606Z,98509.19
2023-04-02T12:49:40.219Z,98509.44
2023-04-02T12:52:45.622Z,98509.06
2023-04-02T12:55:51.527Z,98515.16
2023-04-02T12:58:55.610Z,98514.28
2023-04-02T13:01:59.601Z,98512.56
2023-04-02T13:05:03.369Z,98523.00
2023-04-02T13:08:06.681Z,98522.78
2023-04-02T13:11:10.600Z,98520.78
2023-04-02T13:14:19.114Z,98529.84
2023-04-02T13:17:45.150Z,98529.69
2023-04-02T13:20:57.316Z,98523.88
2023-04-02T13:23:59.825Z,98527.47
2023-04-02T13:27:04.670Z,98540.34
2023-04-02T13:30:11.368Z,98537.28
2023-04-02T13:33:14.445Z,98539.34
2023-04-02T13:36:16.966Z,98545.69
2023-04-02T13:39:20.492Z,98549.56
2023-04-02T13:42:24.326Z,98559.91
2023-04-02T13:45:28.640Z,98557.03
2023-04-02T13:48:31.412Z,98569.41
2023-04-02T13:51:37.479Z,98557.59
2023-04-02T13:54:44.394Z,98577.69
2023-04-02T13:57:50.004Z,98573.22
2023-04-02T14:00:52.758Z,98570.06
2023-04-02T14:03:56.974Z,98581.84
2023-04-02T14:07:24.739Z,98587.84
2023-04-02T14:10:36.545Z,98584.34
2023-04-02T14:13:57.596Z,98593.72
2023-04-02T14:17:08.133Z,98599.63
2023-04-02T14:20:21.690Z,98606.53
2023-04-02T14:23:33.954Z,98607.69
2023-04-02T14:26:42.323Z,98615.97
2023-04-02T14:29:50.993Z,98619.84
2023-04-02T14:32:59.009Z,98625.78
2023-04-02T14:36:10.282Z,98622.84
2023-04-02T14:39:18.290Z,98630.88
2023-04-02T14:42:23.538Z,98624.91
2023-04-02T14:45:38.628Z,98632.09
2023-04-02T14:48:45.324Z,98631.03
2023-04-02T14:51:50.773Z,98637.69
2023-04-02T14:54:55.614Z,98638.91
2023-04-02T14:58:02.018Z,98644.91
2023-04-02T15:01:13.735Z,98645.31
2023-04-02T15:04:19.714Z,98638.59
2023-04-02T15:07:25.300Z,98635.94
2023-04-02T15:10:30.958Z,98646.22
2023-04-02T15:13:37.525Z,98658.50
2023-04-02T15:16:41.620Z,98665.03
2023-04-02T15:19:44.348Z,98665.34
2023-04-02T15:22:57.370Z,98664.53
2023-04-02T15:26:10.872Z,98678.06
2023-04-02T15:29:28.800Z,98678.09
2023-04-02T15:32:39.399Z,98685.63
2023-04-02T15:35:46.633Z,98692.56
2023-04-02T15:38:54.241Z,98688.56
2023-04-02T15:42:05.291Z,98698.38
2023-04-02T15:45:19.340Z,98700.94
2023-04-02T15:48:29.899Z,98708.97
2023-04-02T15:51:51.900Z,98713.75
2023-04-02T15:55:05.395Z,98716.59
2023-04-02T15:58:23.055Z,98716.13
2023-04-02T16:01:32.782Z,98729.97
2023-04-02T16:04:47.191Z,98737.84
2023-04-02T16:08:03.489Z,98730.63
2023-04-02T16:11:10.336Z,98738.78
2023-04-02T16:14:23.587Z,98746.78
2023-04-02T16:17:32.238Z,98747.09
2023-04-02T16:20:39.233Z,98755.06
2023-04-02T16:23:42.589Z,98758.16
2023-04-02T16:26:52.433Z,98762.53
2023-04-02T16:30:07.107Z,98767.81
2023-04-02T16:33:31.780Z,98771.31
2023-04-02T16:36:46.403Z,98773.88
2023-04-02T16:39:52.924Z,98775.66
2023-04-02T16:43:01.260Z,98791.47
2023-04-02T16:46:10.320Z,98789.59
2023-04-02T16:49:21.127Z,98801.81
2023-04-02T16:52:34.705Z,98805.97
2023-04-02T16:55:47.447Z,98810.34
2023-04-02T16:58:56.232Z,98814.47
2023-04-02T17:02:01.106Z,98822.78
2023-04-02T17:05:13.815Z,98831.81
2023-04-02T17:08:22.835Z,98833.69
2023-04-02T17:11:26.754Z,98833.53
2023-04-02T17:14:32.949Z,98843.47
2023-04-02T17:17:36.503Z,98854.53
2023-04-02T17:20:39.196Z,98854.66
2023-04-02T17:23:55.816Z,98864.84
2023-04-02T17:27:01.888Z,98867.47
2023-04-02T17:30:06.893Z,98874.44
2023-04-02T17:33:12.554Z,98890.78
2023-04-02T17:36:27.094Z,98894.28
2023-04-02T17:39:36.226Z,98896.47
2023-04-02T17:42:49.711Z,98904.06
2023-04-02T17:45:53.484Z,98911.03
2023-04-02T17:49:01.963Z,98919.69
2023-04-02T17:52:10.157Z,98930.16
2023-04-02T17:55:20.176Z,98938.94
2023-04-02T17:58:38.903Z,98930.06
2023-04-02T18:01:46.872Z,98945.91
2023-04-02T18:04:54.202Z,98952.72
2023-04-02T18:08:01.860Z,98955.38
2023-04-02T18:11:10.735Z,98962.41
2023-04-02T18:14:31.210Z,98966.91
2023-04-02T18:17:42.229Z,98977.97
2023-04-02T18:20:49.743Z,98987.69
2023-04-02T18:24:20.455Z,99002.38
2023-04-02T18:27:33.036Z,98999.03
2023-04-02T18:30:38.229Z,99014.16
2023-04-02T18:34:03.117Z,99013.81
2023-04-02T18:37:15.335Z,99026.88
2023-04-02T18:40:32.678Z,99037.19
2023-04-02T18:43:45.870Z,99036.75
2023-04-02T18:46:51.965Z,99043.22
2023-04-02T18:50:03.812Z,99055.94
2023-04-02T18:53:12.387Z,99059.94
2023-04-02T18:56:17.476Z,99076.53
2023-04-02T18:59:32.606Z,99087.22
2023-04-02T19:02:41.501Z,99089.28
2023-04-02T19:05:45.771Z,99092.44
2023-04-02T19:08:49.830Z,99097.00
2023-04-02T19:11:52.992Z,99110.56
2023-04-02T19:14:59.252Z,99113.66
2023-04-02T19:18:09.057Z,99127.16
2023-04-02T19:21:17.463Z,99130.78
2023-04-02T19:24:30.559Z,99141.06
2023-04-02T19:27:40.999Z,99136.53
2023-04-02T19:30:57.028Z,99141.81
2023-04-02T19:34:04.297Z,99145.53
2023-04-02T19:37:12.634Z,99155.84
2023-04-02T19:40:22.913Z,99170.66
2023-04-02T19:43:25.569Z,99170.00
2023-04-02T19:46:29.485Z,99179.22
2023-04-02T19:49:34.561Z,99189.56
2023-04-02T19:52:37.193Z,99194.56
2023-04-02T19:55:40.584Z,99204.91
2023-04-02T19:58:43.114Z,99202.50
2023-04-02T20:01:47.643Z,99212.91
2023-04-02T20:04:50.256Z,99210.50
2023-04-02T20:07:52.804Z,99222.94
2023-04-02T20:10:56.458Z,99224.00
2023-04-02T20:13:58.972Z,99222.31
2023-04-02T20:17:03.147Z,99223.50
2023-04-02T20:20:07.136Z,99219.06
2023-04-02T20:23:10.064Z,99222.59
2023-04-02T20:26:13.156Z,99221.78
2023-04-02T20:29:15.649Z,99225.84
2023-04-02T20:32:19.608Z,99231.56
2023-04-02T20:35:22.163Z,99241.59
2023-04-02T20:38:24.901Z,99243.28
2023-04-02T20:41:27.838Z,99241.91
2023-04-02T20:44:30.566Z,99251.63
2023-04-02T20:47:34.672Z,99255.97
2023-04-02T20:50:37.471Z,99260.09
2023-04-02T20:53:40.213Z,99255.47
2023-04-02T20:56:43.048Z,99264.13
2023-04-02T20:59:45.593Z,99271.72
2023-04-02T21:02:49.653Z,99277.44
2023-04-02T21:05:52.328Z,99279.38
2023-04-02T21:08:54.863Z,99279.44
2023-04-02T21:11:57.492Z,99284.81
2023-04-02T21:15:02.293Z,99290.22
2023-04-02T21:18:07.054Z,99295.09
2023-04-02T21:21:13.241Z,99288.88
2023-04-02T21:24:15.790Z,99299.44
2023-04-02T21:27:18.343Z,99298.63
2023-04-02T21:30:20.863Z,99301.34
2023-04-02T21:33:24.783Z,99309.75
2023-04-02T21:36:29.233Z,99313.00
2023-04-02T21:39:31.762Z,99301.59
2023-04-02T21:42:34.386Z,99303.19
2023-04-02T21:45:37.253Z,99296.75
2023-04-02T21:48:41.878Z,99301.63
2023-04-02T21:51:46.618Z,99314.09
2023-04-02T21:54:49.312Z,99311.41
2023-04-02T21:57:51.822Z,99309.25
2023-04-02T22:00:54.417Z,99309.78
2023-04-02T22:04:00.302Z,99313.56
2023-04-02T22:07:02.967Z,99332.03
2023-04-02T22:10:05.957Z,99327.13
2023-04-02T22:13:08.730Z,99327.69
2023-04-02T22:16:13.535Z,99337.16
2023-04-02T22:19:17.586Z,99326.59
2023-04-02T22:22:20.440Z,99339.06
2023-04-02T22:25:23.030Z,99329.84
2023-04-02T22:28:26.357Z,99332.03
2023-04-02T22:31:30.779Z,99334.16
2023-04-02T22:34:34.708Z,99334.72
2023-04-02T22:37:37.266Z,99328.47
2023-04-02T22:40:39.824Z,99335.28
2023-04-02T22:43:43.853Z,99335.81
2023-04-02T22:46:46.525Z,99336.34
2023-04-02T22:49:51.045Z,99323.91
2023-04-02T22:52:53.992Z,99324.94
2023-04-02T22:55:56.520Z,99336.34
2023-04-02T22:58:59.260Z,99330.66
2023-04-02T23:02:01.918Z,99335.50
2023-04-02T23:05:06.703Z,99328.19
2023-04-02T23:08:09.347Z,99327.66
2023-04-02T23:11:14.044Z,99326.59
2023-04-02T23:14:16.598Z,99322.25
2023-04-02T23:17:21.531Z,99329.31
2023-04-02T23:20:25.562Z,99326.88
2023-04-02T23:23:28.541Z,99336.91
2023-04-02T23:26:31.713Z,99329.56
2023-04-02T23:29:34.296Z,99335.81
2023-04-02T23:32:36.994Z,99339.88
2023-04-02T23:35:41.119Z,99329.56
2023-04-02T23:38:43.700Z,99330.34
2023-04-02T23:41:46.185Z,99323.56
2023-04-02T23:44:48.724Z,99333.84
2023-04-02T23:47:51.325Z,99324.34
2023-04-02T23:50:55.446Z,99336.47
2023-04-02T23:53:58.175Z,99324.81
2023-04-02T23:57:00.694Z,99329.19
